Time;durP1;ratioP1;P1;durP2;ratioP2;P2;SDS_P1;SDS_P2;PMS_P1;PMS_P2;Temp;Humidity;BMP_temperature;BMP_pressure;BME280_temperature;BME280_humidity;BME280_pressure;Samples;Min_cycle;Max_cycle;Signal;HPM_P1;HPM_P2
2022/06/11 00:02:02;;;;;;;15.63;12.98;;;;;;;20.40;93.07;100328.84;6242075;22;20459;-66
2022/06/11 00:04:33;;;;;;;13.85;12.38;;;;;;;20.36;93.60;100328.41;6241158;23;20051;-65
2022/06/11 00:07:05;;;;;;;18.17;13.20;;;;;;;20.34;94.33;100326.94;6241174;22;20042;-66
2022/06/11 00:09:31;;;;;;;16.17;12.85;;;;;;;20.30;94.31;100329.22;6241244;22;20004;-64
2022/06/11 00:11:57;;;;;;;14.88;13.10;;;;;;;20.29;93.79;100330.25;6241429;22;20006;-65
2022/06/11 00:14:26;;;;;;;15.77;14.07;;;;;;;20.12;93.97;100310.63;6241040;22;20004;-64
2022/06/11 00:16:52;;;;;;;18.75;13.70;;;;;;;20.24;94.34;100329.16;6241178;23;20800;-66
2022/06/11 00:19:20;;;;;;;17.92;14.43;;;;;;;20.16;95.05;100319.25;6240931;22;20028;-65
2022/06/11 00:21:47;;;;;;;15.63;13.32;;;;;;;20.18;94.74;100328.91;6240948;22;20027;-65
2022/06/11 00:24:13;;;;;;;16.40;13.60;;;;;;;20.11;94.20;100313.50;6240648;22;20016;-65
2022/06/11 00:26:42;;;;;;;17.30;13.25;;;;;;;20.10;95.00;100312.69;6240853;22;20368;-65
2022/06/11 00:29:08;;;;;;;17.15;13.40;;;;;;;20.12;95.38;100323.41;6240813;22;20337;-66
2022/06/11 00:31:34;;;;;;;18.42;14.07;;;;;;;20.07;95.07;100315.78;6239309;23;20433;-65
2022/06/11 00:34:00;;;;;;;17.58;14.75;;;;;;;20.06;94.83;100324.97;6240788;22;20000;-66
2022/06/11 00:36:25;;;;;;;18.98;14.82;;;;;;;20.03;95.08;100322.63;6240813;22;20341;-65
2022/06/11 00:38:51;;;;;;;17.23;14.57;;;;;;;19.97;95.62;100312.56;6240965;22;20000;-66
2022/06/11 00:41:20;;;;;;;16.80;14.30;;;;;;;19.99;95.34;100317.78;6240796;22;20360;-66
2022/06/11 00:43:46;;;;;;;19.10;15.15;;;;;;;19.96;94.71;100324.47;6239093;23;20426;-65
2022/06/11 00:46:44;;;;;;;17.65;13.98;;;;;;;19.93;94.49;100321.31;6240764;22;20127;-66
2022/06/11 00:49:18;;;;;;;17.77;15.88;;;;;;;19.93;94.31;100327.56;6240749;22;20079;-66
2022/06/11 00:51:44;;;;;;;16.50;13.68;;;;;;;19.91;94.45;100329.66;6240903;22;20464;-65
2022/06/11 00:54:16;;;;;;;18.13;15.25;;;;;;;19.87;94.39;100320.19;6240722;22;20034;-66
2022/06/11 00:56:48;;;;;;;15.00;13.32;;;;;;;19.89;94.75;100331.72;6240855;22;20000;-66
2022/06/11 00:59:20;;;;;;;16.13;14.15;;;;;;;19.83;94.29;100316.16;6240477;22;20022;-66
2022/06/11 01:01:47;;;;;;;17.40;14.38;;;;;;;19.87;93.88;100325.63;6240717;22;20098;-66
2022/06/11 01:04:36;;;;;;;15.80;14.15;;;;;;;19.87;93.55;100330.25;6238891;23;20111;-66
2022/06/11 01:07:22;;;;;;;14.68;13.02;;;;;;;19.86;93.41;100328.53;6240908;22;20083;-66
2022/06/11 01:09:56;;;;;;;18.27;13.25;;;;;;;19.84;93.67;100328.75;6178946;22;20349;-64
2022/06/11 01:12:28;;;;;;;21.05;15.40;;;;;;;19.80;94.46;100327.44;6239298;23;20054;-65
2022/06/11 01:15:27;;;;;;;15.50;13.77;;;;;;;19.77;94.34;100327.81;6239272;23;20004;-65
2022/06/11 01:18:06;;;;;;;17.95;14.85;;;;;;;19.70;94.26;100321.47;6240884;22;20032;-66
2022/06/11 01:21:21;;;;;;;15.40;13.65;;;;;;;19.71;94.17;100325.03;6240884;22;20012;-66
2022/06/11 01:24:23;;;;;;;17.95;15.68;;;;;;;19.76;94.45;100331.59;6240735;22;20031;-64
2022/06/11 01:27:07;;;;;;;16.92;14.65;;;;;;;19.76;94.50;100330.72;6239252;23;20004;-64
2022/06/11 01:29:46;;;;;;;14.80;13.30;;;;;;;19.76;93.87;100337.03;6241058;23;20011;-65
2022/06/11 01:32:33;;;;;;;18.35;14.13;;;;;;;19.75;94.03;100345.38;6241356;22;20008;-65
2022/06/11 01:35:05;;;;;;;16.45;13.75;;;;;;;19.72;94.22;100341.19;6241222;22;20075;-64
2022/06/11 01:38:03;;;;;;;16.63;13.68;;;;;;;19.69;93.97;100344.28;6241974;22;20012;-64
2022/06/11 01:40:49;;;;;;;16.38;13.40;;;;;;;19.72;93.87;100349.34;6202021;22;20008;-64
2022/06/11 01:43:22;;;;;;;14.48;12.73;;;;;;;19.74;94.14;100341.81;6243415;22;20011;-64
2022/06/11 01:45:49;;;;;;;16.23;13.55;;;;;;;19.70;93.98;100339.69;6243454;22;20062;-65
2022/06/11 01:48:22;;;;;;;16.15;13.00;;;;;;;19.75;93.64;100348.13;6243503;22;19999;-66
2022/06/11 01:50:54;;;;;;;16.43;13.83;;;;;;;19.77;93.75;100351.50;6243585;22;20498;-65
2022/06/11 01:53:31;;;;;;;16.98;13.32;;;;;;;19.78;93.41;100351.31;6243170;22;20342;-65
2022/06/11 01:56:13;;;;;;;17.45;13.85;;;;;;;19.80;93.38;100348.38;6243577;22;20057;-65
2022/06/11 01:58:58;;;;;;;15.90;13.57;;;;;;;19.78;93.43;100354.03;6243471;22;20008;-66
2022/06/11 02:01:45;;;;;;;16.50;13.10;;;;;;;19.75;93.77;100350.84;6243321;22;20023;-65
2022/06/11 02:04:17;;;;;;;15.93;12.38;;;;;;;19.72;93.64;100346.63;6243307;22;20409;-65
2022/06/11 02:07:05;;;;;;;13.23;11.82;;;;;;;19.71;94.06;100353.13;6241763;23;20087;-65
2022/06/11 02:09:58;;;;;;;16.10;12.05;;;;;;;19.67;94.39;100354.50;6243687;22;20352;-64
2022/06/11 02:12:34;;;;;;;17.85;11.60;;;;;;;19.65;95.70;100351.16;6241986;23;20004;-66
2022/06/11 02:15:14;;;;;;;14.82;12.07;;;;;;;19.64;95.65;100354.06;6243420;22;20019;-66
2022/06/11 02:17:43;;;;;;;17.52;12.85;;;;;;;19.58;96.35;100344.78;6243347;22;20000;-65
2022/06/11 02:20:38;;;;;;;14.93;12.07;;;;;;;19.61;95.83;100352.56;6242824;22;20006;-66
2022/06/11 02:23:06;;;;;;;;;;;;;;;19.55;96.98;100360.66;6240300;23;20023;-65
2022/06/11 02:25:47;;;;;;;15.48;13.07;;;;;;;19.50;96.72;100349.50;6242940;22;20473;-66
2022/06/11 02:28:17;;;;;;;17.30;12.77;;;;;;;19.55;96.52;100356.06;6241322;23;20016;-65
2022/06/11 02:30:46;;;;;;;13.52;12.13;;;;;;;19.54;96.58;100359.81;6243019;22;20000;-64
2022/06/11 02:33:14;;;;;;;13.48;11.95;;;;;;;19.52;96.29;100364.59;6242642;22;20000;-66
2022/06/11 02:35:43;;;;;;;18.40;11.80;;;;;;;19.52;97.00;100361.03;6242817;22;20076;-66
2022/06/11 02:38:11;;;;;;;16.50;12.65;;;;;;;19.52;96.59;100361.03;6242668;22;20015;-65
2022/06/11 02:40:42;;;;;;;15.10;13.10;;;;;;;19.49;97.38;100361.41;6243023;22;20031;-66
2022/06/11 02:43:08;;;;;;;16.92;12.35;;;;;;;19.45;97.02;100358.22;6242722;22;20000;-66
2022/06/11 02:45:33;;;;;;;17.10;12.18;;;;;;;19.41;96.42;100354.19;6242695;22;20004;-66
2022/06/11 02:47:58;;;;;;;13.70;12.23;;;;;;;19.43;96.53;100363.03;6241956;22;20032;-66
2022/06/11 02:50:27;;;;;;;13.38;11.32;;;;;;;19.46;96.03;100373.53;6242912;22;20000;-66
2022/06/11 02:52:54;;;;;;;14.25;12.75;;;;;;;19.43;96.43;100379.34;6242977;22;20079;-66
2022/06/11 02:55:21;;;;;;;14.02;12.32;;;;;;;19.43;96.50;100379.34;6242800;22;20008;-66
2022/06/11 02:57:47;;;;;;;21.70;12.15;;;;;;;19.42;96.40;100383.09;6242789;22;20333;-66
2022/06/11 03:00:16;;;;;;;16.83;12.65;;;;;;;19.41;96.20;100383.31;6242076;22;20044;-65
2022/06/11 03:02:45;;;;;;;20.05;12.93;;;;;;;19.39;96.37;100378.03;6242718;22;20008;-66
2022/06/11 03:05:11;;;;;;;17.90;12.18;;;;;;;19.40;95.97;100381.59;6242528;22;20031;-65
2022/06/11 03:07:37;;;;;;;17.67;13.35;;;;;;;19.36;96.07;100372.13;6242816;22;20046;-66
2022/06/11 03:10:04;;;;;;;16.23;13.07;;;;;;;19.40;96.52;100379.72;6242618;23;20003;-66
2022/06/11 03:12:30;;;;;;;13.75;11.90;;;;;;;19.39;96.38;100390.78;6242531;22;20027;-66
2022/06/11 03:14:56;;;;;;;19.77;12.90;;;;;;;19.39;95.71;100388.94;6242901;22;20717;-66
2022/06/11 03:17:21;;;;;;;14.02;12.43;;;;;;;19.44;95.34;100393.81;6240873;23;20007;-66
2022/06/11 03:19:47;;;;;;;17.60;12.40;;;;;;;19.38;95.73;100383.69;6242595;22;20008;-63
2022/06/11 03:22:13;;;;;;;13.43;11.68;;;;;;;19.42;95.58;100399.44;6242375;22;20023;-66
2022/06/11 03:24:38;;;;;;;15.13;12.35;;;;;;;19.32;95.27;100387.97;6242689;22;20005;-66
2022/06/11 03:27:05;;;;;;;20.05;13.68;;;;;;;19.37;95.01;100407.31;6240769;23;20392;-64
2022/06/11 03:29:31;;;;;;;16.02;12.85;;;;;;;19.39;95.31;100409.84;6240592;23;20014;-64
2022/06/11 03:31:56;;;;;;;19.75;12.77;;;;;;;19.37;95.40;100410.03;6242009;23;20004;-64
2022/06/11 03:34:22;;;;;;;15.93;11.88;;;;;;;19.38;95.74;100410.88;6241540;22;20000;-66
2022/06/11 03:36:48;;;;;;;14.00;12.15;;;;;;;19.38;95.29;100416.31;6242208;22;20020;-65
2022/06/11 03:39:16;;;;;;;16.60;12.52;;;;;;;19.36;95.82;100424.66;6240990;22;20363;-63
2022/06/11 03:41:41;;;;;;;18.35;12.40;;;;;;;19.18;95.81;100410.56;6242107;22;20322;-64
2022/06/11 03:44:07;;;;;;;20.23;12.65;;;;;;;19.36;95.95;100435.53;6241831;22;20054;-65
2022/06/11 03:46:32;;;;;;;13.75;12.38;;;;;;;19.35;95.88;100435.72;6242439;22;20015;-64
2022/06/11 03:48:58;;;;;;;16.08;12.57;;;;;;;19.36;95.72;100440.97;6238060;22;19996;-64
2022/06/11 03:51:23;;;;;;;18.30;12.88;;;;;;;19.31;95.78;100437.97;6241904;22;20066;-64
2022/06/11 03:53:50;;;;;;;17.88;12.60;;;;;;;19.39;95.34;100445.19;6240288;23;20004;-65
2022/06/11 03:56:17;;;;;;;13.82;12.32;;;;;;;19.39;94.99;100439.75;6241556;22;20054;-65
2022/06/11 03:58:46;;;;;;;16.15;12.52;;;;;;;19.37;94.56;100448.09;6241650;22;20500;-65
2022/06/11 04:01:16;;;;;;;15.00;11.60;;;;;;;19.35;94.02;100439.28;6241239;22;20027;-65
2022/06/11 04:03:53;;;;;;;16.45;12.38;;;;;;;19.34;93.56;100437.59;6241642;22;20004;-65
2022/06/11 04:06:30;;;;;;;14.57;12.77;;;;;;;19.37;93.56;100442.66;6241838;22;20004;-66
2022/06/11 04:08:58;;;;;;;15.48;11.65;;;;;;;19.39;93.25;100446.06;6241686;23;20027;-65
2022/06/11 04:11:24;;;;;;;14.05;12.55;;;;;;;19.35;94.01;100446.63;6241885;22;20016;-64
2022/06/11 04:13:53;;;;;;;13.90;12.38;;;;;;;19.40;93.60;100452.31;6242043;23;20075;-64
2022/06/11 04:16:27;;;;;;;15.23;11.88;;;;;;;19.40;93.57;100458.63;6241830;22;20008;-65
2022/06/11 04:18:53;;;;;;;14.45;12.90;;;;;;;19.39;94.50;100453.34;6241888;22;20011;-65
2022/06/11 04:21:20;;;;;;;16.52;12.40;;;;;;;19.40;94.32;100455.91;6241487;22;20012;-65
2022/06/11 04:23:49;;;;;;;22.33;11.10;;;;;;;19.42;93.93;100453.00;6241880;22;20149;-65
2022/06/11 04:26:20;;;;;;;13.50;11.63;;;;;;;19.44;93.14;100456.38;6239915;23;20004;-65
2022/06/11 04:28:47;;;;;;;12.82;11.40;;;;;;;19.42;93.17;100453.84;6240435;23;20429;-65
2022/06/11 04:31:15;;;;;;;14.10;11.60;;;;;;;19.39;92.89;100450.63;6241797;22;20034;-65
2022/06/11 04:33:47;;;;;;;14.77;11.90;;;;;;;19.43;93.55;100451.94;6241753;22;19996;-65
2022/06/11 04:36:13;;;;;;;11.52;10.20;;;;;;;19.47;92.98;100461.41;6230787;22;20523;-65
2022/06/11 04:38:39;;;;;;;12.65;11.35;;;;;;;19.50;93.01;100459.16;6211977;23;20013;-65
2022/06/11 04:41:07;;;;;;;11.77;9.77;;;;;;;19.53;92.92;100450.63;6212161;23;20001;-64
2022/06/11 04:43:33;;;;;;;13.65;11.63;;;;;;;19.52;92.91;100440.78;6212133;23;20051;-65
2022/06/11 04:45:59;;;;;;;13.43;10.77;;;;;;;19.59;92.64;100449.03;6212317;23;20011;-64
2022/06/11 04:48:24;;;;;;;12.85;10.38;;;;;;;19.55;92.30;100437.69;6185457;23;20083;-65
2022/06/11 04:50:49;;;;;;;11.50;10.30;;;;;;;19.70;91.71;100452.09;6212776;23;20011;-66
2022/06/11 04:53:15;;;;;;;11.27;10.10;;;;;;;19.72;91.06;100463.66;6212239;23;20426;-65
2022/06/11 04:55:40;;;;;;;16.05;10.93;;;;;;;19.75;91.17;100459.72;6212201;23;20035;-65
2022/06/11 04:58:06;;;;;;;12.73;11.43;;;;;;;19.72;91.33;100455.50;6212286;23;20008;-65
2022/06/11 05:00:32;;;;;;;12.52;10.45;;;;;;;19.77;90.99;100457.66;6212170;23;20423;-65
2022/06/11 05:02:59;;;;;;;12.07;10.80;;;;;;;19.80;90.75;100458.09;6185291;23;20009;-65
2022/06/11 05:05:25;;;;;;;12.13;10.02;;;;;;;19.82;90.22;100456.03;6212094;23;20004;-65
2022/06/11 05:07:52;;;;;;;11.68;10.50;;;;;;;19.86;90.02;100454.63;6212199;23;20020;-65
2022/06/11 05:10:21;;;;;;;12.93;10.35;;;;;;;19.88;90.17;100455.28;6185516;23;20055;-65
2022/06/11 05:12:46;;;;;;;11.20;10.10;;;;;;;19.88;89.76;100454.44;6213767;23;20028;-65
2022/06/11 05:15:13;;;;;;;11.85;9.93;;;;;;;19.87;90.08;100455.47;6187649;23;20005;-65
2022/06/11 05:17:39;;;;;;;12.50;10.70;;;;;;;19.86;90.50;100457.34;6214114;23;20027;-65
2022/06/11 05:20:06;;;;;;;13.35;10.23;;;;;;;19.85;90.78;100452.94;6214243;23;20494;-65
2022/06/11 05:22:32;;;;;;;12.00;10.80;;;;;;;19.93;90.45;100463.69;6213900;23;20062;-65
2022/06/11 05:24:57;;;;;;;13.45;10.63;;;;;;;19.96;90.74;100462.50;6214157;23;20001;-65
2022/06/11 05:27:25;;;;;;;13.07;10.30;;;;;;;20.01;90.32;100470.91;6214239;23;20016;-64
2022/06/11 05:29:59;;;;;;;12.40;10.38;;;;;;;20.04;90.52;100468.66;6212557;23;20015;-65
2022/06/11 05:32:29;;;;;;;13.48;10.93;;;;;;;20.05;90.09;100467.63;6213884;23;20012;-65
2022/06/11 05:34:57;;;;;;;11.95;10.40;;;;;;;20.14;89.92;100477.41;6213822;23;20103;-65
2022/06/11 05:37:22;;;;;;;11.15;9.77;;;;;;;20.14;89.39;100463.78;6213755;23;20087;-65
2022/06/11 05:39:48;;;;;;;10.15;9.15;;;;;;;20.19;89.47;100472.22;6213935;23;20032;-65
2022/06/11 05:42:14;;;;;;;10.48;9.27;;;;;;;20.24;89.55;100470.81;6214121;23;20446;-65
2022/06/11 05:44:41;;;;;;;11.35;10.10;;;;;;;20.36;89.78;100466.53;6213712;23;20592;-65
2022/06/11 05:47:10;;;;;;;9.77;8.60;;;;;;;20.58;90.12;100471.78;6213871;23;20380;-65
2022/06/11 05:49:39;;;;;;;12.82;9.43;;;;;;;20.83;89.48;100461.31;6187187;23;20532;-65
2022/06/11 05:52:09;;;;;;;8.50;7.70;;;;;;;21.09;88.63;100473.28;6213948;23;19996;-65
2022/06/11 05:54:39;;;;;;;10.18;9.07;;;;;;;21.26;87.56;100469.25;6212193;23;19997;-65
2022/06/11 05:57:07;;;;;;;10.55;9.27;;;;;;;21.58;84.96;100467.75;6186527;23;20465;-65
2022/06/11 05:59:39;;;;;;;12.50;9.10;;;;;;;21.70;84.01;100466.97;6213353;23;20012;-65
2022/06/11 06:02:08;;;;;;;10.68;9.40;;;;;;;21.81;83.48;100469.16;6213386;23;20322;-65
2022/06/11 06:04:35;;;;;;;9.68;8.68;;;;;;;21.77;82.68;100454.22;6213341;23;20015;-65
2022/06/11 06:07:00;;;;;;;9.35;8.52;;;;;;;22.00;82.21;100482.06;6213350;23;20087;-65
2022/06/11 06:09:25;;;;;;;10.55;9.05;;;;;;;22.16;81.42;100478.13;6186945;23;20036;-65
2022/06/11 06:11:51;;;;;;;8.30;7.50;;;;;;;22.40;81.45;100474.81;6213596;23;20017;-65
2022/06/11 06:14:16;;;;;;;9.60;8.60;;;;;;;22.58;79.84;100482.47;6213773;23;20054;-65
2022/06/11 06:16:42;;;;;;;8.48;7.68;;;;;;;22.57;78.79;100454.25;6213843;23;20334;-65
2022/06/11 06:19:08;;;;;;;10.23;8.93;;;;;;;22.87;77.50;100480.19;6213415;23;20004;-65
2022/06/11 06:21:38;;;;;;;13.30;8.13;;;;;;;23.00;76.90;100473.84;6213632;23;20010;-66
2022/06/11 06:24:05;;;;;;;9.23;7.65;;;;;;;23.22;75.82;100476.19;6212769;23;20004;-65
2022/06/11 06:26:31;;;;;;;8.60;7.13;;;;;;;23.42;73.86;100482.50;6213488;23;20011;-65
2022/06/11 06:28:57;;;;;;;8.98;7.50;;;;;;;23.62;71.40;100463.25;6213418;23;20083;-65
2022/06/11 06:31:23;;;;;;;10.35;7.93;;;;;;;23.77;70.41;100475.63;6214200;23;20028;-69
2022/06/11 06:33:50;;;;;;;9.10;7.93;;;;;;;23.73;70.22;100466.16;6187550;23;20338;-68
2022/06/11 06:36:16;;;;;;;8.07;7.10;;;;;;;23.89;68.40;100479.38;6214088;23;20066;-69
2022/06/11 06:38:43;;;;;;;8.50;7.22;;;;;;;23.92;67.54;100489.91;6214132;23;20047;-69
2022/06/11 06:41:09;;;;;;;8.20;7.28;;;;;;;24.01;66.84;100494.13;6187370;23;20079;-69
2022/06/11 06:43:35;;;;;;;10.15;6.93;;;;;;;23.98;67.48;100497.31;6186688;23;20020;-69
2022/06/11 06:46:01;;;;;;;8.35;6.85;;;;;;;23.97;68.42;100503.00;6213880;23;20026;-68
2022/06/11 06:48:27;;;;;;;8.57;7.20;;;;;;;23.95;69.04;100495.00;6213689;23;20012;-69
2022/06/11 06:50:53;;;;;;;9.70;7.43;;;;;;;23.84;69.72;100478.34;6186925;23;20004;-69
2022/06/11 06:53:20;;;;;;;7.57;6.88;;;;;;;23.87;68.33;100499.84;6212122;23;20091;-68
2022/06/11 06:55:46;;;;;;;7.93;6.75;;;;;;;23.85;68.75;100502.81;6213789;23;19997;-68
2022/06/11 06:58:14;;;;;;;7.32;6.35;;;;;;;23.79;68.26;100484.47;6208542;23;20072;-69
2022/06/11 07:00:41;;;;;;;9.18;5.90;;;;;;;23.89;67.76;100490.34;6213252;23;20027;-68
2022/06/11 07:03:06;;;;;;;6.47;5.88;;;;;;;23.96;67.59;100493.13;6186548;23;20505;-68
2022/06/11 07:05:32;;;;;;;6.90;5.70;;;;;;;23.97;66.50;100490.16;6212773;23;20062;-68
2022/06/11 07:07:57;;;;;;;8.48;5.65;;;;;;;24.03;66.20;100497.50;6213421;23;20445;-69
2022/06/11 07:10:24;;;;;;;6.53;5.60;;;;;;;23.99;65.63;100485.28;6213201;23;20010;-69
2022/06/11 07:12:50;;;;;;;6.07;5.47;;;;;;;24.12;65.08;100498.09;6186911;23;20437;-69
2022/06/11 07:15:16;;;;;;;5.80;5.10;;;;;;;24.14;63.17;100509.66;6213505;23;20692;-68
2022/06/11 07:17:46;;;;;;;5.63;5.07;;;;;;;24.08;64.22;100500.44;6213079;23;20005;-68
2022/06/11 07:20:15;;;;;;;6.68;4.95;;;;;;;24.20;62.99;100498.69;6186142;23;20009;-68
2022/06/11 07:22:55;;;;;;;7.40;5.18;;;;;;;24.18;63.65;100506.28;6212639;23;19996;-65
2022/06/11 07:25:21;;;;;;;5.97;4.72;;;;;;;24.14;62.95;100504.19;6212685;23;20009;-65
2022/06/11 07:27:52;;;;;;;5.88;5.38;;;;;;;24.21;63.44;100507.72;6211366;23;20001;-65
2022/06/11 07:30:22;;;;;;;5.78;5.10;;;;;;;24.32;63.49;100518.84;6211467;23;20036;-65
2022/06/11 07:32:54;;;;;;;6.50;4.82;;;;;;;24.49;61.53;100513.72;6212401;23;20083;-65
2022/06/11 07:35:20;;;;;;;5.25;4.82;;;;;;;24.61;61.75;100525.69;6207230;23;20008;-65
2022/06/11 07:37:48;;;;;;;5.00;4.60;;;;;;;24.80;61.44;100516.50;6212229;23;20043;-65
2022/06/11 07:40:14;;;;;;;4.85;4.40;;;;;;;24.97;59.75;100520.38;6212368;23;20004;-65
2022/06/11 07:42:39;;;;;;;7.07;4.82;;;;;;;25.04;58.55;100517.56;6211707;23;20440;-65
2022/06/11 07:45:05;;;;;;;5.03;4.43;;;;;;;25.03;57.54;100510.41;6212251;23;20015;-65
2022/06/11 07:50:15;;;;;;;;;;;;;;;25.16;57.74;100521.28;6212229;23;20019;-65
2022/06/11 07:52:42;;;;;;;6.75;4.55;;;;;;;25.27;57.91;100515.91;6212031;23;19986;-65
2022/06/11 07:55:09;;;;;;;5.05;4.30;;;;;;;25.31;57.65;100503.44;6212308;23;20035;-65
2022/06/11 07:57:34;;;;;;;6.63;4.70;;;;;;;25.45;56.24;100498.66;6212224;23;20004;-66
2022/06/11 08:00:01;;;;;;;5.10;4.60;;;;;;;25.56;56.67;100509.75;6211945;23;20067;-65
2022/06/11 08:02:26;;;;;;;5.00;4.22;;;;;;;25.68;56.44;100509.81;6211973;23;20032;-65
2022/06/11 08:04:52;;;;;;;4.95;4.55;;;;;;;25.70;55.30;100508.53;6184849;23;20001;-65
2022/06/11 08:07:18;;;;;;;7.53;4.50;;;;;;;25.80;55.75;100519.00;6212084;23;20000;-65
2022/06/11 08:09:44;;;;;;;8.23;4.95;;;;;;;25.88;56.29;100514.03;6212037;23;20100;-65
2022/06/11 08:12:10;;;;;;;6.90;4.68;;;;;;;25.96;56.17;100502.72;6211987;23;20110;-65
2022/06/11 08:14:35;;;;;;;7.13;4.72;;;;;;;26.07;54.27;100512.16;6211957;23;20008;-65
2022/06/11 08:17:01;;;;;;;4.40;3.85;;;;;;;26.17;54.34;100499.56;6185105;23;20091;-67
2022/06/11 08:19:27;;;;;;;4.35;4.05;;;;;;;26.28;54.09;100504.25;6211252;23;20051;-65
2022/06/11 08:21:53;;;;;;;4.50;4.07;;;;;;;26.39;53.67;100522.75;6212138;23;20005;-65
2022/06/11 08:24:19;;;;;;;5.38;3.90;;;;;;;26.38;51.51;100512.78;6212028;23;20012;-66
2022/06/11 08:26:45;;;;;;;4.68;3.90;;;;;;;26.46;51.95;100511.63;6211685;23;20004;-65
2022/06/11 08:29:11;;;;;;;6.43;3.78;;;;;;;26.40;52.86;100485.06;6211259;23;20338;-65
2022/06/11 08:31:36;;;;;;;4.97;4.28;;;;;;;26.56;52.47;100494.59;6211909;23;20039;-64
2022/06/11 08:34:02;;;;;;;5.45;3.92;;;;;;;26.60;52.56;100485.63;6211785;23;20117;-65
2022/06/11 08:36:27;;;;;;;4.38;3.78;;;;;;;26.74;52.46;100489.03;6211638;23;20024;-66
2022/06/11 08:38:52;;;;;;;5.72;3.95;;;;;;;26.80;52.81;100491.69;6210521;23;20044;-65
2022/06/11 08:41:21;;;;;;;4.32;3.92;;;;;;;26.90;52.23;100494.72;6211982;23;20004;-64
2022/06/11 08:44:09;;;;;;;4.28;3.78;;;;;;;27.01;52.38;100493.88;6211923;23;20059;-65
2022/06/11 08:46:38;;;;;;;7.55;3.85;;;;;;;27.02;51.56;100475.44;6211369;23;20015;-65
2022/06/11 08:49:09;;;;;;;4.03;3.45;;;;;;;27.10;49.40;100489.72;6211823;23;20077;-65
2022/06/11 08:51:41;;;;;;;4.00;3.63;;;;;;;27.02;49.73;100489.22;6211772;23;20397;-65
2022/06/11 08:54:16;;;;;;;3.90;3.50;;;;;;;27.02;49.93;100501.06;6211997;23;20011;-65
2022/06/11 08:56:56;;;;;;;3.63;3.33;;;;;;;27.01;50.53;100495.81;6184785;23;20008;-65
2022/06/11 08:59:41;;;;;;;5.00;3.15;;;;;;;27.04;49.64;100479.63;6212125;23;20008;-66
2022/06/11 09:02:28;;;;;;;4.47;3.17;;;;;;;27.14;49.54;100496.41;6211672;23;20211;-66
2022/06/11 09:05:47;;;;;;;3.15;2.95;;;;;;;27.10;48.28;100472.34;6211769;23;20004;-65
2022/06/11 09:08:30;;;;;;;5.07;2.85;;;;;;;27.29;48.23;100485.81;6188002;23;20489;-65
2022/06/11 09:11:34;;;;;;;3.40;3.10;;;;;;;27.32;48.53;100490.84;6211836;23;20547;-65
2022/06/11 09:14:17;;;;;;;3.78;2.72;;;;;;;27.37;47.51;100474.41;6185122;23;20009;-66
2022/06/11 09:16:54;;;;;;;2.58;2.38;;;;;;;27.43;47.45;100478.97;6211841;23;20012;-65
2022/06/11 09:19:35;;;;;;;5.95;2.60;;;;;;;27.46;47.07;100484.00;6211883;23;20366;-64
2022/06/11 09:22:07;;;;;;;2.85;2.35;;;;;;;27.50;47.54;100493.47;6211624;23;20070;-65
2022/06/11 09:24:48;;;;;;;4.28;2.70;;;;;;;27.57;46.26;100483.16;6184943;23;20008;-65
2022/06/11 09:27:39;;;;;;;3.50;2.92;;;;;;;27.52;46.15;100483.06;6211731;23;20063;-65
2022/06/11 09:30:07;;;;;;;4.72;2.90;;;;;;;27.49;46.35;100483.53;6211656;23;20040;-65
2022/06/11 09:33:00;;;;;;;2.72;2.53;;;;;;;27.42;46.30;100466.28;6209921;23;20005;-64
2022/06/11 09:35:41;;;;;;;3.17;2.58;;;;;;;27.52;46.83;100483.06;6211575;23;20039;-65
2022/06/11 09:38:31;;;;;;;4.20;2.72;;;;;;;27.45;45.60;100487.00;6209605;23;20044;-65
2022/06/11 09:41:12;;;;;;;3.20;2.80;;;;;;;27.48;46.93;100495.63;6211678;23;20031;-65
2022/06/11 09:44:03;;;;;;;3.45;2.60;;;;;;;27.52;46.07;100484.94;6184866;23;20036;-64
2022/06/11 09:46:40;;;;;;;4.10;2.60;;;;;;;27.63;46.06;100479.44;6211399;23;20027;-65
2022/06/11 09:49:17;;;;;;;3.22;2.92;;;;;;;27.68;46.04;100492.50;6211583;23;20005;-65
2022/06/11 09:52:07;;;;;;;2.90;2.70;;;;;;;27.64;46.25;100486.63;6211518;23;20333;-65
2022/06/11 09:54:39;;;;;;;4.70;2.72;;;;;;;27.67;46.03;100486.16;6211410;23;19999;-65
2022/06/11 09:57:17;;;;;;;2.70;2.45;;;;;;;27.72;44.86;100489.00;6211623;23;20012;-65
2022/06/11 09:59:47;;;;;;;2.35;2.08;;;;;;;27.83;45.12;100485.38;6213174;23;20001;-65
2022/06/11 10:02:33;;;;;;;3.60;2.63;;;;;;;27.85;45.75;100487.94;6186721;23;20020;-65
2022/06/11 10:05:02;;;;;;;3.75;3.00;;;;;;;27.83;45.60;100490.91;6213350;23;20009;-65
2022/06/11 10:07:37;;;;;;;2.95;2.65;;;;;;;27.82;44.67;100485.66;6212965;23;20008;-66
2022/06/11 10:10:14;;;;;;;3.50;2.90;;;;;;;27.74;45.29;100494.28;6183468;23;20460;-67
2022/06/11 10:12:43;;;;;;;4.82;2.80;;;;;;;27.73;45.48;100484.34;6211371;23;20050;-65
2022/06/11 10:15:15;;;;;;;2.75;2.55;;;;;;;27.69;45.73;100458.31;6184576;23;20005;-66
2022/06/11 10:17:55;;;;;;;5.43;2.75;;;;;;;27.81;45.74;100482.06;6184457;23;20087;-66
2022/06/11 10:20:30;;;;;;;5.00;3.13;;;;;;;27.81;45.85;100478.44;6211554;23;20005;-66
2022/06/11 10:23:05;;;;;;;4.10;3.28;;;;;;;27.76;45.71;100492.13;6210880;23;20103;-66
2022/06/11 10:25:43;;;;;;;7.80;3.00;;;;;;;27.62;45.46;100461.22;6185454;23;20377;-65
2022/06/11 10:28:38;;;;;;;2.95;2.75;;;;;;;27.74;46.39;100481.34;6211717;23;20000;-65
2022/06/11 10:31:20;;;;;;;4.57;2.90;;;;;;;27.84;45.49;100472.44;6210733;23;20077;-66
2022/06/11 10:34:05;;;;;;;3.25;2.95;;;;;;;27.85;45.44;100466.72;6211047;23;20016;-66
2022/06/11 10:36:32;;;;;;;;;;;;;;;27.90;45.91;100479.78;6210876;23;20020;-66
2022/06/11 10:39:32;;;;;;;3.10;2.45;;;;;;;27.95;45.58;100475.22;6211213;23;20369;-67
2022/06/11 10:42:06;;;;;;;3.28;3.05;;;;;;;28.02;45.80;100472.34;6210808;23;20008;-66
2022/06/11 10:44:53;;;;;;;2.85;2.65;;;;;;;28.10;45.88;100474.69;6211004;23;20008;-66
2022/06/11 10:47:31;;;;;;;3.35;3.08;;;;;;;28.10;44.87;100470.03;6183853;23;20008;-66
2022/06/11 10:50:17;;;;;;;5.03;3.33;;;;;;;28.06;45.16;100460.56;6210571;23;20580;-65
2022/06/11 10:53:12;;;;;;;3.55;3.22;;;;;;;28.09;45.31;100460.06;6182690;23;20019;-66
2022/06/11 10:55:48;;;;;;;5.35;2.90;;;;;;;28.07;45.18;100451.19;6183920;23;20019;-66
2022/06/11 10:58:28;;;;;;;2.85;2.60;;;;;;;28.07;44.94;100447.59;6207035;23;20012;-66
2022/06/11 11:01:12;;;;;;;5.45;3.05;;;;;;;28.03;45.40;100457.44;6183697;23;20001;-65
2022/06/11 11:03:51;;;;;;;3.60;2.90;;;;;;;27.96;45.85;100445.72;6209859;23;20027;-65
2022/06/11 11:06:26;;;;;;;3.78;2.90;;;;;;;28.01;45.14;100445.81;6210218;23;20341;-66
2022/06/11 11:08:56;;;;;;;4.07;3.15;;;;;;;28.05;45.57;100447.84;6209234;23;20087;-65
2022/06/11 11:11:23;;;;;;;4.32;2.85;;;;;;;28.04;45.53;100431.53;6184371;23;20326;-66
2022/06/11 11:14:05;;;;;;;4.32;3.30;;;;;;;28.13;45.31;100433.69;6209865;23;20004;-66
2022/06/11 11:16:36;;;;;;;3.15;2.95;;;;;;;28.14;45.31;100437.25;6210663;23;20008;-66
2022/06/11 11:19:05;;;;;;;3.35;3.05;;;;;;;28.22;44.83;100437.72;6209821;23;20453;-66
2022/06/11 11:21:35;;;;;;;2.92;2.72;;;;;;;28.09;44.52;100413.16;6183542;23;20012;-66
2022/06/11 11:24:34;;;;;;;2.63;2.42;;;;;;;28.27;44.41;100426.75;6183461;23;20040;-66
2022/06/11 11:27:10;;;;;;;2.97;2.67;;;;;;;28.30;43.76;100426.28;6210193;23;20004;-66
2022/06/11 11:29:40;;;;;;;6.90;2.95;;;;;;;28.38;43.88;100423.09;6209801;23;20011;-66
2022/06/11 11:32:34;;;;;;;4.05;2.67;;;;;;;28.32;44.13;100423.28;6183601;23;20020;-66
2022/06/11 11:35:18;;;;;;;2.58;2.38;;;;;;;28.36;44.03;100413.41;6208872;23;20472;-66
2022/06/11 11:37:46;;;;;;;2.95;2.40;;;;;;;28.39;43.78;100413.75;6178028;23;20076;-66
2022/06/11 11:40:36;;;;;;;2.88;2.55;;;;;;;28.42;44.37;100406.91;6180377;23;20084;-66
2022/06/11 11:43:08;;;;;;;4.68;2.70;;;;;;;28.32;44.23;100402.03;6178470;23;20100;-65